createdAt,value
2022-09-10T00:00:53.113Z,994.79
2022-09-10T00:02:49.891Z,994.77
2022-09-10T00:03:49.844Z,994.76
2022-09-10T00:04:49.816Z,994.74
2022-09-10T00:05:49.826Z,994.85
2022-09-10T00:06:49.795Z,994.74
2022-09-10T00:07:49.781Z,994.80
2022-09-10T00:08:49.766Z,994.77
2022-09-10T00:09:49.756Z,994.79
2022-09-10T00:10:49.749Z,994.83
2022-09-10T00:11:49.756Z,994.78
2022-09-10T00:12:49.726Z,994.79
2022-09-10T00:13:49.715Z,994.77
2022-09-10T00:14:49.706Z,994.81
2022-09-10T00:15:49.790Z,994.78
2022-09-10T00:16:49.687Z,994.75
2022-09-10T00:17:49.687Z,994.74
2022-09-10T00:18:49.657Z,994.72
2022-09-10T00:19:49.647Z,994.68
2022-09-10T00:20:49.637Z,994.66
2022-09-10T00:21:49.627Z,994.66
2022-09-10T00:22:49.617Z,994.64
2022-09-10T00:23:49.621Z,994.72
2022-09-10T00:24:49.597Z,994.67
2022-09-10T00:25:49.587Z,994.70
2022-09-10T00:26:49.569Z,994.72
2022-09-10T00:27:49.558Z,994.82
2022-09-10T00:28:49.575Z,994.80
2022-09-10T00:29:49.538Z,994.77
2022-09-10T00:30:49.527Z,994.77
2022-09-10T00:31:49.517Z,994.81
2022-09-10T00:32:49.508Z,994.82
2022-09-10T00:33:49.487Z,994.80
2022-09-10T00:34:49.498Z,994.84
2022-09-10T00:35:49.477Z,994.87
2022-09-10T00:36:49.466Z,994.87
2022-09-10T00:37:49.448Z,994.89
2022-09-10T00:38:49.438Z,994.84
2022-09-10T00:39:49.497Z,994.86
2022-09-10T00:40:49.417Z,994.84
2022-09-10T00:41:49.398Z,994.84
2022-09-10T00:42:49.398Z,994.87
2022-09-10T00:43:49.378Z,994.94
2022-09-10T00:44:49.368Z,994.83
2022-09-10T00:45:49.449Z,994.84
2022-09-10T00:46:49.348Z,994.85
2022-09-10T00:47:49.329Z,994.81
2022-09-10T00:48:49.329Z,994.76
2022-09-10T00:49:49.309Z,994.79
2022-09-10T00:50:49.348Z,994.81
2022-09-10T00:51:49.288Z,994.88
2022-09-10T00:52:49.279Z,994.85
2022-09-10T00:53:49.268Z,994.87
2022-09-10T00:54:49.278Z,994.81
2022-09-10T00:55:49.280Z,994.76
2022-09-10T00:56:49.257Z,994.87
2022-09-10T00:57:49.219Z,994.86
2022-09-10T00:58:49.223Z,994.82
2022-09-10T00:59:49.199Z,994.82
2022-09-10T01:00:49.216Z,994.88
2022-09-10T01:01:49.297Z,994.85
2022-09-10T01:02:49.169Z,994.82
2022-09-10T01:03:49.157Z,994.84
2022-09-10T01:04:49.147Z,994.84
2022-09-10T01:05:49.129Z,994.81
2022-09-10T01:06:49.120Z,994.86
2022-09-10T01:07:49.128Z,994.84
2022-09-10T01:08:49.101Z,994.88
2022-09-10T01:09:49.089Z,994.85
2022-09-10T01:10:49.079Z,994.87
2022-09-10T01:11:49.068Z,994.91
2022-09-10T01:12:49.081Z,994.92
2022-09-10T01:13:49.041Z,994.94
2022-09-10T01:14:49.038Z,994.92
2022-09-10T01:15:49.028Z,994.97
2022-09-10T01:16:49.010Z,994.91
2022-09-10T01:17:49.000Z,994.89
2022-09-10T01:18:49.000Z,994.97
2022-09-10T01:19:48.971Z,994.90
2022-09-10T01:20:48.970Z,994.85
2022-09-10T01:21:48.960Z,994.89
2022-09-10T01:22:48.941Z,994.89
2022-09-10T01:23:48.951Z,994.88
2022-09-10T01:24:48.920Z,994.90
2022-09-10T01:25:48.909Z,994.91
2022-09-10T01:26:48.901Z,994.85
2022-09-10T01:27:48.893Z,994.84
2022-09-10T01:28:48.888Z,994.87
2022-09-10T01:29:48.881Z,994.82
2022-09-10T01:30:48.851Z,994.82
2022-09-10T01:31:48.932Z,994.88
2022-09-10T01:32:48.835Z,994.86
2022-09-10T01:33:48.820Z,994.82
2022-09-10T01:34:48.832Z,994.86
2022-09-10T01:35:48.791Z,994.87
2022-09-10T01:36:48.781Z,994.87
2022-09-10T01:37:48.783Z,994.89
2022-09-10T01:38:48.762Z,994.89
2022-09-10T01:39:48.769Z,994.88
2022-09-10T01:40:48.760Z,994.88
2022-09-10T01:41:48.732Z,994.85
2022-09-10T01:42:48.721Z,994.88
2022-09-10T01:43:48.702Z,994.82
2022-09-10T01:44:48.700Z,994.83
2022-09-10T01:45:48.735Z,994.85
2022-09-10T01:46:48.672Z,994.81
2022-09-10T01:47:48.662Z,994.85
2022-09-10T01:48:48.652Z,994.86
2022-09-10T01:49:48.642Z,994.87
2022-09-10T01:50:48.640Z,994.86
2022-09-10T01:51:48.632Z,994.84
2022-09-10T01:52:48.602Z,994.79
2022-09-10T01:53:48.593Z,994.80
2022-09-10T01:54:48.583Z,994.74
2022-09-10T01:55:48.572Z,994.79
2022-09-10T01:56:48.603Z,994.81
2022-09-10T01:57:48.553Z,994.82
2022-09-10T01:58:48.542Z,994.79
2022-09-10T01:59:48.523Z,994.80
2022-09-10T02:00:48.546Z,994.79
2022-09-10T02:01:48.569Z,994.74
2022-09-10T02:02:48.522Z,994.81
2022-09-10T02:03:48.485Z,994.71
2022-09-10T02:04:48.473Z,994.76
2022-09-10T02:05:48.464Z,994.71
2022-09-10T02:06:48.454Z,994.73
2022-09-10T02:07:48.483Z,994.71
2022-09-10T02:08:48.432Z,994.74
2022-09-10T02:09:48.413Z,994.69
2022-09-10T02:10:48.403Z,994.67
2022-09-10T02:11:48.394Z,994.66
2022-09-10T02:12:48.384Z,994.63
2022-09-10T02:13:48.394Z,994.60
2022-09-10T02:14:48.364Z,994.66
2022-09-10T02:15:48.375Z,994.63
2022-09-10T02:16:48.363Z,994.57
2022-09-10T02:17:48.325Z,994.62
2022-09-10T02:18:48.322Z,994.63
2022-09-10T02:19:48.324Z,994.60
2022-09-10T02:20:48.295Z,994.63
2022-09-10T02:21:48.283Z,994.62
2022-09-10T02:22:48.274Z,994.58
2022-09-10T02:23:48.255Z,994.63
2022-09-10T02:24:48.245Z,994.58
2022-09-10T02:25:48.273Z,994.68
2022-09-10T02:26:48.224Z,994.58
2022-09-10T02:27:48.214Z,994.56
2022-09-10T02:28:48.204Z,994.59
2022-09-10T02:29:48.195Z,994.53
2022-09-10T02:30:48.184Z,994.52
2022-09-10T02:31:48.265Z,994.55
2022-09-10T02:32:48.167Z,994.50
2022-09-10T02:33:48.145Z,994.51
2022-09-10T02:34:48.146Z,994.59
2022-09-10T02:35:48.126Z,994.58
2022-09-10T02:36:48.115Z,994.54
2022-09-10T02:37:48.125Z,994.61
2022-09-10T02:38:48.095Z,994.59
2022-09-10T02:39:48.131Z,994.59
2022-09-10T02:40:48.073Z,994.58
2022-09-10T02:41:48.071Z,994.56
2022-09-10T02:42:48.047Z,994.52
2022-09-10T02:43:48.056Z,994.55
2022-09-10T02:44:48.025Z,994.55
2022-09-10T02:45:48.151Z,994.55
2022-09-10T02:46:48.005Z,994.51
2022-09-10T02:47:47.986Z,994.52
2022-09-10T02:48:47.976Z,994.58
2022-09-10T02:49:47.993Z,994.53
2022-09-10T02:50:47.963Z,994.54
2022-09-10T02:51:47.946Z,994.52
2022-09-10T02:52:47.936Z,994.51
2022-09-10T02:53:47.926Z,994.49
2022-09-10T02:54:48.004Z,994.54
2022-09-10T02:55:47.937Z,994.44
2022-09-10T02:56:47.897Z,994.47
2022-09-10T02:57:47.877Z,994.46
2022-09-10T02:58:47.875Z,994.45
2022-09-10T02:59:47.857Z,994.44
2022-09-10T03:00:47.870Z,994.47
2022-09-10T03:01:47.883Z,994.44
2022-09-10T03:02:47.826Z,994.47
2022-09-10T03:03:47.815Z,994.46
2022-09-10T03:04:47.836Z,994.46
2022-09-10T03:05:47.787Z,994.46
2022-09-10T03:06:47.795Z,994.44
2022-09-10T03:07:47.791Z,994.44
2022-09-10T03:08:47.758Z,994.39
2022-09-10T03:09:47.747Z,994.43
2022-09-10T03:10:47.755Z,994.48
2022-09-10T03:11:47.737Z,994.49
2022-09-10T03:12:47.717Z,994.45
2022-09-10T03:13:47.747Z,994.45
2022-09-10T03:14:47.695Z,994.47
2022-09-10T03:15:47.681Z,994.45
2022-09-10T03:16:47.670Z,994.50
2022-09-10T03:17:47.663Z,994.51
2022-09-10T03:18:47.662Z,994.51
2022-09-10T03:19:47.660Z,994.55
2022-09-10T03:20:47.654Z,994.57
2022-09-10T03:21:47.735Z,994.53
2022-09-10T03:22:47.616Z,994.53
2022-09-10T03:23:48.992Z,994.52
2022-09-10T03:24:47.618Z,994.55
2022-09-10T03:25:49.835Z,994.47
2022-09-10T03:26:47.563Z,994.50
2022-09-10T03:27:47.562Z,994.48
2022-09-10T03:28:47.538Z,994.50
2022-09-10T03:29:47.527Z,994.51
2022-09-10T03:30:47.508Z,994.53
2022-09-10T03:31:47.551Z,994.52
2022-09-10T03:32:47.489Z,994.53
2022-09-10T03:33:47.489Z,994.53
2022-09-10T03:34:47.466Z,994.50
2022-09-10T03:35:47.467Z,994.54
2022-09-10T03:36:47.471Z,994.53
2022-09-10T03:37:47.469Z,994.52
2022-09-10T03:38:47.419Z,994.50
2022-09-10T03:39:47.443Z,994.56
2022-09-10T03:40:47.402Z,994.57
2022-09-10T03:41:47.389Z,994.57
2022-09-10T03:42:47.381Z,994.54
2022-09-10T03:43:47.390Z,994.55
2022-09-10T03:44:47.350Z,994.50
2022-09-10T03:45:47.394Z,994.53
2022-09-10T03:46:47.331Z,994.50
2022-09-10T03:47:47.321Z,994.49
2022-09-10T03:48:48.568Z,994.49
2022-09-10T03:49:47.299Z,994.49
2022-09-10T03:50:47.280Z,994.53
2022-09-10T03:51:47.280Z,994.49
2022-09-10T03:52:47.261Z,994.45
2022-09-10T03:53:47.259Z,994.43
2022-09-10T03:54:47.260Z,994.38
2022-09-10T03:55:47.231Z,994.45
2022-09-10T03:56:47.220Z,994.39
2022-09-10T03:57:47.210Z,994.40
2022-09-10T03:58:47.200Z,994.40
2022-09-10T03:59:47.190Z,994.44
2022-09-10T04:00:47.232Z,994.42
2022-09-10T04:01:47.241Z,994.42
2022-09-10T04:02:47.150Z,994.42
2022-09-10T04:03:47.150Z,994.46
2022-09-10T04:04:47.131Z,994.48
2022-09-10T04:05:47.121Z,994.51
2022-09-10T04:06:47.125Z,994.49
2022-09-10T04:07:47.121Z,994.48
2022-09-10T04:08:47.093Z,994.47
2022-09-10T04:09:47.081Z,994.46
2022-09-10T04:10:47.073Z,994.43
2022-09-10T04:11:47.083Z,994.45
2022-09-10T04:12:47.043Z,994.49
2022-09-10T04:13:47.032Z,994.44
2022-09-10T04:14:47.011Z,994.44
2022-09-10T04:15:47.014Z,994.46
2022-09-10T04:16:47.020Z,994.46
2022-09-10T04:17:47.032Z,994.48
2022-09-10T04:18:46.971Z,994.48
2022-09-10T04:19:46.962Z,994.50
2022-09-10T04:20:46.953Z,994.52
2022-09-10T04:21:46.943Z,994.47
2022-09-10T04:22:46.923Z,994.46
2022-09-10T04:23:46.942Z,994.41
2022-09-10T04:24:46.922Z,994.46
2022-09-10T04:25:46.900Z,994.43
2022-09-10T04:26:46.884Z,994.42
2022-09-10T04:27:46.872Z,994.41
2022-09-10T04:28:46.863Z,994.45
2022-09-10T04:29:46.873Z,994.43
2022-09-10T04:30:46.842Z,994.41
2022-09-10T04:31:46.923Z,994.42
2022-09-10T04:32:46.822Z,994.46
2022-09-10T04:33:46.812Z,994.43
2022-09-10T04:34:46.814Z,994.43
2022-09-10T04:35:46.791Z,994.43
2022-09-10T04:36:46.773Z,994.47
2022-09-10T04:37:46.781Z,994.42
2022-09-10T04:38:46.751Z,994.45
2022-09-10T04:39:46.761Z,994.46
2022-09-10T04:40:46.744Z,994.50
2022-09-10T04:41:46.723Z,994.48
2022-09-10T04:42:46.703Z,994.56
2022-09-10T04:43:46.693Z,994.49
2022-09-10T04:44:46.683Z,994.52
2022-09-10T04:45:46.724Z,994.56
2022-09-10T04:46:46.685Z,994.56
2022-09-10T04:47:46.653Z,994.56
2022-09-10T04:48:46.635Z,994.57
2022-09-10T04:49:46.632Z,994.54
2022-09-10T04:50:59.346Z,994.60
2022-09-10T04:51:47.652Z,994.61
2022-09-10T04:52:46.613Z,994.51
2022-09-10T04:53:46.584Z,994.61
2022-09-10T04:54:46.574Z,994.59
2022-09-10T04:55:46.565Z,994.58
2022-09-10T04:56:46.554Z,994.55
2022-09-10T04:57:46.564Z,994.62
2022-09-10T04:58:46.825Z,994.63
2022-09-10T04:59:46.515Z,994.66
2022-09-10T05:00:46.565Z,994.69
2022-09-10T05:01:46.494Z,994.68
2022-09-10T05:02:46.476Z,994.68
2022-09-10T05:03:46.485Z,994.74
2022-09-10T05:04:46.455Z,994.69
2022-09-10T05:05:46.446Z,994.71
2022-09-10T05:06:46.435Z,994.69
2022-09-10T05:07:46.425Z,994.71
2022-09-10T05:08:46.436Z,994.76
2022-09-10T05:09:46.405Z,994.70
2022-09-10T05:10:46.385Z,994.72
2022-09-10T05:11:46.386Z,994.75
2022-09-10T05:12:46.371Z,994.77
2022-09-10T05:13:46.367Z,994.69
2022-09-10T05:14:46.375Z,994.71
2022-09-10T05:15:46.338Z,994.74
2022-09-10T05:16:46.420Z,994.74
2022-09-10T05:17:46.318Z,994.75
2022-09-10T05:18:46.305Z,994.71
2022-09-10T05:19:46.306Z,994.68
2022-09-10T05:20:46.307Z,994.74
2022-09-10T05:21:46.265Z,994.70
2022-09-10T05:22:46.266Z,994.77
2022-09-10T05:23:46.246Z,994.71
2022-09-10T05:24:46.237Z,994.74
2022-09-10T05:25:46.226Z,994.69
2022-09-10T05:26:46.234Z,994.71
2022-09-10T05:27:46.206Z,994.73
2022-09-10T05:28:46.188Z,994.74
2022-09-10T05:29:46.185Z,994.67
2022-09-10T05:30:50.845Z,994.64
2022-09-10T05:31:47.216Z,994.62
2022-09-10T05:32:46.147Z,994.64
2022-09-10T05:33:46.137Z,994.66
2022-09-10T05:34:46.125Z,994.60
2022-09-10T05:35:46.117Z,994.67
2022-09-10T05:36:46.099Z,994.65
2022-09-10T05:37:46.116Z,994.64
2022-09-10T05:38:46.281Z,994.60
2022-09-10T05:39:46.126Z,994.63
2022-09-10T05:40:46.058Z,994.66
2022-09-10T05:41:46.047Z,994.64
2022-09-10T05:42:46.037Z,994.63
2022-09-10T05:43:46.049Z,994.60
2022-09-10T05:44:46.007Z,994.63
2022-09-10T05:45:46.048Z,994.61
2022-09-10T05:46:45.988Z,994.57
2022-09-10T05:47:45.978Z,994.66
2022-09-10T05:48:46.216Z,994.68
2022-09-10T05:49:45.977Z,994.68
2022-09-10T05:50:45.948Z,994.63
2022-09-10T05:51:45.938Z,994.62
2022-09-10T05:52:45.917Z,994.64
2022-09-10T05:53:45.928Z,994.61
2022-09-10T05:54:45.899Z,994.62
2022-09-10T05:55:45.909Z,994.64
2022-09-10T05:56:45.878Z,994.63
2022-09-10T05:57:45.868Z,994.65
2022-09-10T05:58:45.849Z,994.63
2022-09-10T05:59:45.858Z,994.62
2022-09-10T06:00:45.848Z,994.62
2022-09-10T06:01:45.870Z,994.64
2022-09-10T06:02:52.899Z,994.69
2022-09-10T06:03:45.804Z,994.67
2022-09-10T06:04:46.493Z,994.70
2022-09-10T06:05:46.493Z,994.71
2022-09-10T06:06:45.792Z,994.72
2022-09-10T06:07:45.764Z,994.74
2022-09-10T06:08:45.743Z,994.76
2022-09-10T06:09:45.733Z,994.74
2022-09-10T06:10:45.723Z,994.78
2022-09-10T06:11:45.723Z,994.80
2022-09-10T06:12:45.713Z,994.81
2022-09-10T06:13:45.691Z,994.83
2022-09-10T06:14:45.683Z,994.80
2022-09-10T06:15:45.663Z,994.86
2022-09-10T06:16:45.706Z,994.82
2022-09-10T06:17:45.663Z,994.76
2022-09-10T06:18:45.623Z,994.77
2022-09-10T06:19:45.624Z,994.78
2022-09-10T06:20:45.604Z,994.70
2022-09-10T06:21:45.616Z,994.77
2022-09-10T06:22:45.584Z,994.77
2022-09-10T06:23:45.603Z,994.80
2022-09-10T06:24:45.565Z,994.75
2022-09-10T06:25:45.554Z,994.77
2022-09-10T06:26:45.543Z,994.85
2022-09-10T06:27:45.534Z,994.84
2022-09-10T06:28:45.566Z,994.84
2022-09-10T06:29:45.534Z,994.85
2022-09-10T06:30:45.531Z,994.86
2022-09-10T06:31:45.485Z,994.86
2022-09-10T06:32:45.475Z,994.85
2022-09-10T06:33:45.473Z,994.88
2022-09-10T06:34:45.445Z,994.87
2022-09-10T06:35:45.465Z,994.88
2022-09-10T06:36:45.425Z,994.92
2022-09-10T06:37:45.424Z,994.89
2022-09-10T06:38:45.406Z,994.88
2022-09-10T06:39:45.419Z,994.83
2022-09-10T06:40:45.405Z,994.86
2022-09-10T06:41:49.458Z,994.90
2022-09-10T06:42:45.366Z,994.91
2022-09-10T06:43:45.355Z,994.90
2022-09-10T06:44:45.336Z,994.85
2022-09-10T06:45:45.364Z,994.88
2022-09-10T06:48:32.712Z,994.88
2022-09-10T06:48:48.211Z,994.89
2022-09-10T06:49:45.294Z,994.91
2022-09-10T06:50:45.278Z,994.92
2022-09-10T06:51:45.286Z,994.97
2022-09-10T06:52:45.248Z,994.93
2022-09-10T06:53:45.246Z,994.92
2022-09-10T06:54:45.226Z,994.97
2022-09-10T06:55:45.216Z,994.96
2022-09-10T06:56:45.206Z,994.96
2022-09-10T06:57:45.215Z,994.95
2022-09-10T06:58:45.177Z,994.96
2022-09-10T06:59:45.166Z,994.96
2022-09-10T07:00:45.159Z,994.86
2022-09-10T07:01:45.147Z,994.96
2022-09-10T07:02:45.185Z,995.01
2022-09-10T07:03:45.127Z,994.99
2022-09-10T07:04:45.107Z,995.05
2022-09-10T07:05:45.106Z,995.01
2022-09-10T07:06:45.088Z,994.97
2022-09-10T07:07:45.077Z,994.99
2022-09-10T07:08:45.088Z,994.99
2022-09-10T07:09:45.066Z,995.03
2022-09-10T07:10:45.038Z,995.06
2022-09-10T07:11:45.038Z,994.96
2022-09-10T07:12:45.029Z,994.89
2022-09-10T07:13:45.019Z,994.90
2022-09-10T07:14:45.029Z,994.95
2022-09-10T07:15:45.020Z,994.87
2022-09-10T07:16:44.979Z,994.89
2022-09-10T07:17:44.970Z,994.86
2022-09-10T07:18:44.958Z,994.96
2022-09-10T07:19:44.972Z,994.92
2022-09-10T07:20:44.929Z,994.89
2022-09-10T07:21:44.928Z,994.97
2022-09-10T07:22:44.910Z,994.97
2022-09-10T07:23:44.909Z,994.97
2022-09-10T07:24:44.890Z,994.94
2022-09-10T07:25:44.930Z,995.05
2022-09-10T07:26:44.869Z,995.00
2022-09-10T07:27:44.860Z,995.06
2022-09-10T07:28:44.841Z,995.04
2022-09-10T07:29:44.839Z,994.99
2022-09-10T07:30:44.842Z,995.02
2022-09-10T07:31:45.814Z,994.95
2022-09-10T07:32:44.802Z,995.08
2022-09-10T07:33:44.791Z,995.06
2022-09-10T07:34:44.784Z,995.04
2022-09-10T07:35:44.810Z,994.87
2022-09-10T07:36:44.760Z,995.11
2022-09-10T07:37:44.770Z,995.03
2022-09-10T07:38:44.746Z,995.06
2022-09-10T07:39:44.776Z,995.05
2022-09-10T07:40:44.711Z,994.98
2022-09-10T07:41:44.701Z,995.06
2022-09-10T07:42:44.692Z,995.11
2022-09-10T07:43:44.693Z,995.09
2022-09-10T07:44:44.674Z,995.22
2022-09-10T07:45:44.721Z,995.14
2022-09-10T07:46:44.651Z,995.22
2022-09-10T07:47:44.646Z,995.16
2022-09-10T07:48:44.652Z,995.24
2022-09-10T07:49:44.613Z,995.16
2022-09-10T07:50:44.604Z,995.17
2022-09-10T07:51:44.604Z,995.11
2022-09-10T07:52:44.583Z,995.09
2022-09-10T07:53:50.569Z,995.18
2022-09-10T07:54:45.583Z,995.17
2022-09-10T07:55:44.636Z,995.23
2022-09-10T07:56:44.535Z,995.12
2022-09-10T07:57:44.515Z,995.18
2022-09-10T07:58:44.515Z,995.17
2022-09-10T07:59:44.505Z,995.18
2022-09-10T08:00:44.515Z,995.21
2022-09-10T08:01:44.523Z,995.25
2022-09-10T08:02:44.467Z,995.18
2022-09-10T08:03:44.457Z,995.24
2022-09-10T08:04:44.454Z,995.23
2022-09-10T08:05:44.437Z,995.30
2022-09-10T08:06:44.438Z,995.30
2022-09-10T08:07:44.408Z,995.30
2022-09-10T08:08:44.407Z,995.31
2022-09-10T08:09:44.387Z,995.28
2022-09-10T08:10:44.378Z,995.28
2022-09-10T08:11:44.388Z,995.35
2022-09-10T08:12:44.357Z,995.27
2022-09-10T08:13:44.337Z,995.26
2022-09-10T08:14:44.338Z,995.30
2022-09-10T08:15:44.360Z,995.38
2022-09-10T08:16:44.650Z,995.39
2022-09-10T08:17:44.319Z,995.38
2022-09-10T08:18:44.298Z,995.35
2022-09-10T08:19:44.277Z,995.41
2022-09-10T08:20:44.269Z,995.38
2022-09-10T08:21:44.250Z,995.39
2022-09-10T08:22:44.239Z,995.38
2022-09-10T08:23:44.240Z,995.28
2022-09-10T08:24:44.219Z,995.40
2022-09-10T08:25:44.212Z,995.38
2022-09-10T08:26:44.205Z,995.35
2022-09-10T08:27:44.181Z,995.38
2022-09-10T08:28:44.214Z,995.48
2022-09-10T08:29:44.162Z,995.44
2022-09-10T08:30:44.193Z,995.46
2022-09-10T08:31:44.141Z,995.42
2022-09-10T08:32:44.147Z,995.48
2022-09-10T08:33:44.111Z,995.45
2022-09-10T08:34:44.134Z,995.47
2022-09-10T08:35:44.091Z,995.54
2022-09-10T08:36:44.080Z,995.46
2022-09-10T08:37:44.061Z,995.48
2022-09-10T08:38:44.060Z,995.44
2022-09-10T08:39:44.075Z,995.47
2022-09-10T08:40:44.062Z,995.49
2022-09-10T08:41:44.022Z,995.48
2022-09-10T08:42:44.012Z,995.49
2022-09-10T08:43:44.022Z,995.47
2022-09-10T08:44:43.990Z,995.55
2022-09-10T08:45:44.082Z,995.48
2022-09-10T08:46:43.984Z,995.55
2022-09-10T08:47:43.952Z,995.58
2022-09-10T08:48:43.943Z,995.58
2022-09-10T08:49:43.923Z,995.50
2022-09-10T08:50:43.913Z,995.59
2022-09-10T08:51:43.934Z,995.62
2022-09-10T08:52:43.893Z,995.56
2022-09-10T08:53:43.883Z,995.61
2022-09-10T08:54:43.873Z,995.54
2022-09-10T08:55:48.299Z,995.61
2022-09-10T08:56:44.874Z,995.57
2022-09-10T08:57:43.847Z,995.60
2022-09-10T08:58:43.827Z,995.65
2022-09-10T08:59:43.815Z,995.60
2022-09-10T09:00:43.813Z,995.58
2022-09-10T09:01:43.832Z,995.62
2022-09-10T09:02:49.147Z,995.66
2022-09-10T09:03:44.765Z,995.66
2022-09-10T09:04:43.763Z,995.72
2022-09-10T09:05:43.758Z,995.68
2022-09-10T09:06:43.746Z,995.73
2022-09-10T09:07:43.726Z,995.65
2022-09-10T09:08:43.735Z,995.70
2022-09-10T09:09:43.706Z,995.69
2022-09-10T09:10:43.696Z,995.72
2022-09-10T09:11:43.688Z,995.69
2022-09-10T09:12:43.677Z,995.70
2022-09-10T09:13:43.676Z,995.69
2022-09-10T09:14:43.666Z,995.67
2022-09-10T09:15:43.687Z,995.69
2022-09-10T09:16:43.635Z,995.66
2022-09-10T09:17:43.622Z,995.66
2022-09-10T09:18:43.606Z,995.66
2022-09-10T09:19:43.617Z,995.60
2022-09-10T09:20:43.587Z,995.65
2022-09-10T09:21:43.576Z,995.69
2022-09-10T09:22:43.567Z,995.68
2022-09-10T09:24:02.827Z,995.72
2022-09-10T09:24:44.558Z,995.74
2022-09-10T09:25:45.278Z,995.68
2022-09-10T09:26:43.527Z,995.69
2022-09-10T09:27:43.506Z,995.70
2022-09-10T09:28:43.498Z,995.72
2022-09-10T09:29:43.488Z,995.67
2022-09-10T09:30:43.530Z,995.71
2022-09-10T09:31:43.468Z,995.69
2022-09-10T09:32:43.456Z,995.68
2022-09-10T09:33:43.438Z,995.75
2022-09-10T09:34:43.429Z,995.72
2022-09-10T09:35:43.419Z,995.71
2022-09-10T09:36:43.429Z,995.71
2022-09-10T09:37:43.405Z,995.70
2022-09-10T09:38:43.389Z,995.73
2022-09-10T09:39:43.455Z,995.72
2022-09-10T09:40:43.369Z,995.69
2022-09-10T09:41:43.359Z,995.73
2022-09-10T09:42:43.370Z,995.62
2022-09-10T09:43:43.329Z,995.64
2022-09-10T09:44:43.319Z,995.65
2022-09-10T09:45:43.356Z,995.66
2022-09-10T09:46:43.300Z,995.70
2022-09-10T09:47:43.290Z,995.69
2022-09-10T09:48:43.300Z,995.64
2022-09-10T09:49:43.268Z,995.61
2022-09-10T09:50:43.262Z,995.59
2022-09-10T09:51:43.252Z,995.61
2022-09-10T09:52:43.242Z,995.54
2022-09-10T09:53:47.709Z,995.56
2022-09-10T09:55:12.641Z,995.55
2022-09-10T09:55:44.209Z,995.56
2022-09-10T09:56:43.191Z,995.59
2022-09-10T09:57:43.309Z,995.59
2022-09-10T09:58:43.171Z,995.59
2022-09-10T09:59:43.161Z,995.57
2022-09-10T10:00:43.170Z,995.59
2022-09-10T10:01:43.185Z,995.58
2022-09-10T10:02:43.122Z,995.63
2022-09-10T10:03:43.117Z,995.56
2022-09-10T10:04:43.102Z,995.55
2022-09-10T10:05:43.091Z,995.50
2022-09-10T10:06:43.114Z,995.55
2022-09-10T10:07:43.063Z,995.53
2022-09-10T10:08:43.053Z,995.50
2022-09-10T10:09:43.044Z,995.53
2022-09-10T10:10:43.033Z,995.55
2022-09-10T10:11:43.023Z,995.53
2022-09-10T10:12:43.056Z,995.50
2022-09-10T10:13:42.994Z,995.47
2022-09-10T10:14:42.991Z,995.51
2022-09-10T10:15:43.032Z,995.54
2022-09-10T10:16:42.967Z,995.52
2022-09-10T10:17:42.952Z,995.51
2022-09-10T10:18:42.963Z,995.46
2022-09-10T10:19:42.925Z,995.47
2022-09-10T10:20:42.915Z,995.50
2022-09-10T10:21:42.905Z,995.45
2022-09-10T10:22:42.897Z,995.50
2022-09-10T10:23:42.915Z,995.41
2022-09-10T10:24:42.876Z,995.49
2022-09-10T10:25:42.865Z,995.44
2022-09-10T10:26:42.855Z,995.41
2022-09-10T10:27:42.836Z,995.49
2022-09-10T10:28:42.836Z,995.45
2022-09-10T10:29:42.847Z,995.51
2022-09-10T10:30:42.857Z,995.45
2022-09-10T10:31:42.796Z,995.47
2022-09-10T10:32:42.776Z,995.49
2022-09-10T10:33:42.770Z,995.44
2022-09-10T10:34:42.757Z,995.49
2022-09-10T10:35:42.788Z,995.45
2022-09-10T10:36:42.737Z,995.40
2022-09-10T10:37:42.738Z,995.41
2022-09-10T10:38:42.716Z,995.44
2022-09-10T10:39:42.786Z,995.42
2022-09-10T10:40:42.721Z,995.42
2022-09-10T10:41:42.705Z,995.36
2022-09-10T10:42:42.668Z,995.44
2022-09-10T10:43:42.661Z,995.34
2022-09-10T10:44:42.647Z,995.38
2022-09-10T10:45:42.649Z,995.42
2022-09-10T10:46:42.673Z,995.37
2022-09-10T10:47:42.641Z,995.38
2022-09-10T10:48:42.610Z,995.35
2022-09-10T10:49:42.601Z,995.37
2022-09-10T10:50:42.591Z,995.36
2022-09-10T10:51:42.571Z,995.35
2022-09-10T10:52:42.559Z,995.42
2022-09-10T10:53:42.569Z,995.36
2022-09-10T10:54:42.548Z,995.31
2022-09-10T10:55:42.589Z,995.38
2022-09-10T10:56:42.537Z,995.36
2022-09-10T10:57:42.501Z,995.31
2022-09-10T10:58:42.502Z,995.36
2022-09-10T10:59:42.560Z,995.34
2022-09-10T11:00:42.482Z,995.26
2022-09-10T11:01:42.538Z,995.24
2022-09-10T11:02:42.488Z,995.30
2022-09-10T11:03:42.442Z,995.21
2022-09-10T11:04:42.472Z,995.23
2022-09-10T11:05:42.432Z,995.24
2022-09-10T11:06:42.402Z,995.21
2022-09-10T11:07:42.421Z,995.18
2022-09-10T11:08:42.393Z,995.26
2022-09-10T11:09:42.404Z,995.20
2022-09-10T11:10:42.883Z,995.21
2022-09-10T11:11:42.352Z,995.22
2022-09-10T11:12:42.346Z,995.26
2022-09-10T11:13:42.333Z,995.32
2022-09-10T11:14:42.317Z,995.30
2022-09-10T11:15:42.385Z,995.24
2022-09-10T11:16:42.317Z,995.22
2022-09-10T11:17:42.295Z,995.25
2022-09-10T11:18:42.295Z,995.18
2022-09-10T11:19:42.277Z,995.27
2022-09-10T11:20:42.271Z,995.25
2022-09-10T11:21:42.266Z,995.24
2022-09-10T11:22:42.256Z,995.27
2022-09-10T11:23:42.217Z,995.27
2022-09-10T11:24:42.229Z,995.30
2022-09-10T11:25:42.206Z,995.29
2022-09-10T11:26:42.227Z,995.28
2022-09-10T11:27:42.196Z,995.25
2022-09-10T11:28:42.197Z,995.25
2022-09-10T11:29:42.169Z,995.23
2022-09-10T11:30:42.195Z,995.26
2022-09-10T11:31:42.127Z,995.25
2022-09-10T11:32:42.148Z,995.24
2022-09-10T11:33:42.107Z,995.21
2022-09-10T11:34:42.087Z,995.27
2022-09-10T11:35:42.120Z,995.24
2022-09-10T11:36:42.087Z,995.24
2022-09-10T11:37:42.604Z,995.29
2022-09-10T11:38:42.068Z,995.15
2022-09-10T11:39:42.097Z,995.14
2022-09-10T11:40:42.028Z,995.13
2022-09-10T11:41:42.045Z,995.18
2022-09-10T11:42:42.028Z,995.13
2022-09-10T11:43:42.017Z,995.08
2022-09-10T11:44:41.993Z,995.10
2022-09-10T11:45:41.988Z,995.10
2022-09-10T11:46:41.959Z,995.09
2022-09-10T11:47:41.960Z,995.13
2022-09-10T11:48:41.951Z,995.13
2022-09-10T11:49:41.948Z,995.11
2022-09-10T11:50:41.921Z,995.13
2022-09-10T11:51:41.932Z,995.11
2022-09-10T11:52:41.900Z,995.15
2022-09-10T11:53:41.890Z,995.13
2022-09-10T11:54:41.916Z,995.16
2022-09-10T11:55:41.871Z,995.14
2022-09-10T11:56:41.856Z,995.14
2022-09-10T11:57:41.849Z,995.08
2022-09-10T11:58:41.843Z,995.04
2022-09-10T11:59:41.819Z,995.08
2022-09-10T12:00:41.886Z,995.11
2022-09-10T12:01:41.820Z,995.07
2022-09-10T12:02:41.782Z,995.02
2022-09-10T12:03:41.967Z,995.03
2022-09-10T12:04:45.661Z,995.06
2022-09-10T12:05:42.774Z,995.03
2022-09-10T12:06:41.736Z,995.08
2022-09-10T12:07:41.733Z,995.03
2022-09-10T12:08:41.715Z,995.03
2022-09-10T12:09:41.704Z,995.02
2022-09-10T12:10:41.694Z,995.09
2022-09-10T12:11:41.713Z,995.04
2022-09-10T12:12:41.665Z,995.09
2022-09-10T12:13:41.684Z,995.02
2022-09-10T12:14:41.659Z,995.03
2022-09-10T12:15:41.679Z,995.01
2022-09-10T12:16:41.636Z,995.03
2022-09-10T12:17:41.690Z,995.01
2022-09-10T12:18:42.779Z,995.00
2022-09-10T12:19:41.596Z,995.00
2022-09-10T12:20:41.593Z,994.96
2022-09-10T12:21:41.596Z,995.02
2022-09-10T12:22:41.578Z,995.03
2022-09-10T12:23:41.798Z,995.01
2022-09-10T12:24:41.536Z,994.99
2022-09-10T12:25:41.558Z,995.00
2022-09-10T12:26:41.519Z,995.01
2022-09-10T12:27:41.507Z,995.02
2022-09-10T12:28:41.507Z,994.99
2022-09-10T12:29:41.486Z,995.02
2022-09-10T12:30:41.476Z,994.98